Time;durP1;ratioP1;P1;durP2;ratioP2;P2;SDS_P1;SDS_P2;PMS_P1;PMS_P2;Temp;Humidity;BMP_temperature;BMP_pressure;BME280_temperature;BME280_humidity;BME280_pressure;Samples;Min_cycle;Max_cycle;Signal;HPM_P1;HPM_P2
2023/12/14 00:02:02;;;;;;;33.45;24.00;;;;;;;11.49;90.20;99833.06;5049355;28;20447;-77
2023/12/14 00:04:28;;;;;;;43.00;26.80;;;;;;;11.50;89.83;99840.13;5049265;28;20120;-76
2023/12/14 00:06:53;;;;;;;43.17;25.77;;;;;;;11.41;89.85;99824.88;5049027;28;20028;-76
2023/12/14 00:09:19;;;;;;;44.17;27.20;;;;;;;11.35;90.72;99820.06;5049430;28;20033;-75
2023/12/14 00:11:44;;;;;;;42.38;27.13;;;;;;;11.47;90.60;99830.50;5049006;28;20467;-76
2023/12/14 00:14:10;;;;;;;48.10;28.90;;;;;;;11.54;91.29;99829.91;5048924;28;20121;-76
2023/12/14 00:16:35;;;;;;;34.15;24.75;;;;;;;11.52;91.18;99819.31;5048763;28;20465;-75
2023/12/14 00:19:01;;;;;;;41.72;26.98;;;;;;;11.50;91.35;99810.50;5049036;28;20025;-77
2023/12/14 00:21:29;;;;;;;32.88;24.52;;;;;;;11.47;91.31;99794.66;5048864;28;20025;-76
2023/12/14 00:23:54;;;;;;;33.25;23.48;;;;;;;11.62;90.82;99824.63;5049112;28;20519;-76
2023/12/14 00:26:20;;;;;;;39.28;23.88;;;;;;;11.59;89.95;99820.38;5049458;28;20049;-75
2023/12/14 00:28:45;;;;;;;36.20;23.45;;;;;;;11.56;89.89;99807.22;5047777;28;20060;-76
2023/12/14 00:31:11;;;;;;;36.47;23.90;;;;;;;11.60;90.30;99832.84;5049762;28;20029;-75
2023/12/14 00:33:36;;;;;;;35.17;23.63;;;;;;;11.57;89.59;99830.44;5050959;28;20028;-75
2023/12/14 00:36:02;;;;;;;39.03;24.90;;;;;;;11.55;89.40;99821.69;5050618;28;20037;-74
2023/12/14 00:38:27;;;;;;;40.85;26.67;;;;;;;11.47;89.94;99819.72;5048675;28;20087;-75
2023/12/14 00:40:53;;;;;;;47.75;29.35;;;;;;;11.49;89.70;99827.69;5047235;28;20037;-78
2023/12/14 00:43:18;;;;;;;37.63;26.98;;;;;;;11.38;89.91;99826.00;5048369;28;20029;-76
2023/12/14 00:45:44;;;;;;;51.22;31.90;;;;;;;11.34;89.68;99807.63;5048543;28;20048;-77
2023/12/14 00:48:09;;;;;;;53.00;31.30;;;;;;;11.34;89.70;99815.72;5048218;28;20060;-76
2023/12/14 00:50:35;;;;;;;50.80;32.60;;;;;;;11.24;89.91;99804.13;5048335;28;20078;-75
2023/12/14 00:53:00;;;;;;;50.60;30.13;;;;;;;11.28;91.25;99803.69;5048656;28;20231;-75
2023/12/14 00:55:26;;;;;;;49.25;31.45;;;;;;;11.30;90.71;99822.38;5048180;28;20039;-77
2023/12/14 00:57:54;;;;;;;48.15;30.45;;;;;;;11.27;90.58;99818.16;5048399;28;20110;-74
2023/12/14 01:00:20;;;;;;;43.95;29.17;;;;;;;11.25;91.02;99803.16;5029099;28;20044;-76
2023/12/14 01:02:45;;;;;;;47.30;29.48;;;;;;;11.23;90.90;99799.75;5048101;28;20032;-76
2023/12/14 01:05:11;;;;;;;35.40;26.05;;;;;;;11.29;90.75;99809.91;5047932;28;20035;-77
2023/12/14 01:07:36;;;;;;;43.63;27.95;;;;;;;11.28;91.34;99814.44;5047964;28;20105;-75
2023/12/14 01:10:03;;;;;;;41.97;27.25;;;;;;;11.25;91.05;99812.03;5047915;28;20043;-76
2023/12/14 01:12:29;;;;;;;39.20;25.13;;;;;;;11.27;91.60;99811.91;5012656;28;20044;-74
2023/12/14 01:14:54;;;;;;;41.17;27.13;;;;;;;11.33;92.13;99811.31;5048086;28;20024;-73
2023/12/14 01:17:20;;;;;;;43.22;25.25;;;;;;;11.28;92.42;99803.69;5047129;28;20024;-76
2023/12/14 01:19:45;;;;;;;39.30;26.33;;;;;;;11.35;91.85;99806.63;5048490;28;20032;-77
2023/12/14 01:22:11;;;;;;;38.35;24.73;;;;;;;11.26;91.54;99794.91;5063131;28;20068;-75
2023/12/14 01:24:36;;;;;;;35.78;25.65;;;;;;;11.34;91.96;99803.06;5050590;28;20036;-76
2023/12/14 01:27:02;;;;;;;49.25;26.17;;;;;;;11.14;91.53;99774.56;5048559;28;20029;-75
2023/12/14 01:29:27;;;;;;;38.95;25.38;;;;;;;11.23;91.60;99794.34;5047642;28;21101;-75
2023/12/14 01:31:53;;;;;;;38.40;24.38;;;;;;;11.21;91.70;99785.59;5047564;28;20028;-74
2023/12/14 01:34:18;;;;;;;43.22;27.85;;;;;;;11.06;91.30;99768.25;5047649;28;20112;-75
2023/12/14 01:36:44;;;;;;;36.00;24.30;;;;;;;11.15;91.11;99775.44;5047812;28;20481;-74
2023/12/14 01:39:09;;;;;;;38.42;23.95;;;;;;;11.14;91.28;99763.81;5047650;28;20029;-75
2023/12/14 01:41:35;;;;;;;35.85;22.98;;;;;;;11.25;92.31;99765.47;5047595;28;20028;-76
2023/12/14 01:44:00;;;;;;;32.25;21.30;;;;;;;11.23;92.36;99764.75;5047417;28;20555;-75
2023/12/14 01:46:26;;;;;;;32.83;21.45;;;;;;;11.16;91.82;99755.59;5047571;28;20044;-77
2023/12/14 01:48:52;;;;;;;35.10;24.05;;;;;;;11.18;92.03;99769.75;5047655;28;20509;-76
2023/12/14 01:51:18;;;;;;;34.50;22.92;;;;;;;11.21;91.99;99773.00;5047363;28;20029;-78
2023/12/14 01:53:44;;;;;;;40.13;25.95;;;;;;;11.16;92.64;99755.59;5047428;28;20029;-74
2023/12/14 01:56:10;;;;;;;32.63;22.30;;;;;;;11.25;92.88;99773.53;5047353;28;20116;-74
2023/12/14 01:58:35;;;;;;;43.67;27.45;;;;;;;11.27;92.96;99771.53;5047621;28;20028;-75
2023/12/14 02:01:06;;;;;;;35.63;23.25;;;;;;;11.33;92.60;99768.25;5046465;28;20492;-74
2023/12/14 02:03:32;;;;;;;32.65;23.25;;;;;;;11.34;93.20;99762.69;5047130;28;20036;-76
2023/12/14 02:05:57;;;;;;;42.97;28.17;;;;;;;11.30;93.11;99763.16;5047533;28;20032;-74
2023/12/14 02:08:24;;;;;;;49.03;29.25;;;;;;;11.40;92.92;99775.59;5047359;28;20350;-75
2023/12/14 02:10:50;;;;;;;37.83;23.70;;;;;;;11.47;93.14;99773.09;5047355;28;20566;-74
2023/12/14 02:13:15;;;;;;;31.83;21.65;;;;;;;11.57;93.53;99781.97;5047759;28;20033;-76
2023/12/14 02:15:41;;;;;;;31.50;23.77;;;;;;;11.64;93.94;99769.63;5050873;28;20024;-79
2023/12/14 02:18:07;;;;;;;38.75;24.10;;;;;;;11.52;93.71;99757.38;5047570;28;20040;-76
2023/12/14 02:20:32;;;;;;;33.03;22.77;;;;;;;11.58;92.66;99767.53;5047467;28;20102;-75
2023/12/14 02:22:58;;;;;;;30.67;21.65;;;;;;;11.51;92.31;99747.59;5047053;28;20032;-76
2023/12/14 02:25:24;;;;;;;33.47;21.05;;;;;;;11.72;92.87;99758.94;5047289;28;20045;-75
2023/12/14 02:27:51;;;;;;;33.00;23.48;;;;;;;11.78;92.59;99763.72;5046860;28;20052;-75
2023/12/14 02:30:17;;;;;;;64.05;35.67;;;;;;;11.81;91.87;99760.72;5047066;28;20401;-75
2023/12/14 02:32:43;;;;;;;48.55;28.48;;;;;;;11.72;91.76;99748.16;5047152;28;20045;-75
2023/12/14 02:35:09;;;;;;;66.70;30.52;;;;;;;11.82;91.35;99762.41;5047106;28;20687;-76
2023/12/14 02:37:37;;;;;;;40.63;22.15;;;;;;;11.89;92.27;99750.03;5047071;28;20040;-79
2023/12/14 02:40:04;;;;;;;39.65;22.00;;;;;;;12.02;92.75;99772.03;5047016;28;20044;-77
2023/12/14 02:42:30;;;;;;;46.17;25.30;;;;;;;12.08;93.37;99756.25;5028034;28;20029;-77
2023/12/14 02:44:56;;;;;;;27.35;17.80;;;;;;;12.08;93.39;99756.25;5046740;28;20405;-78
2023/12/14 02:47:21;;;;;;;35.03;19.60;;;;;;;12.20;93.11;99755.00;5047318;28;20044;-76
2023/12/14 02:49:47;;;;;;;22.40;16.15;;;;;;;12.28;93.28;99761.31;5047031;28;20029;-75
2023/12/14 02:52:12;;;;;;;20.52;14.85;;;;;;;12.43;93.87;99758.88;5047136;28;20021;-76
2023/12/14 02:54:39;;;;;;;22.35;16.65;;;;;;;12.53;94.13;99757.78;5047232;28;20037;-75
2023/12/14 02:57:05;;;;;;;21.20;14.52;;;;;;;12.62;94.18;99758.69;5047500;28;20537;-77
2023/12/14 02:59:30;;;;;;;22.15;14.75;;;;;;;12.73;94.26;99765.63;5047097;28;20025;-77
2023/12/14 03:01:56;;;;;;;20.73;14.38;;;;;;;12.56;94.40;99724.25;5047829;28;20029;-77
2023/12/14 03:04:21;;;;;;;21.33;14.40;;;;;;;12.86;94.34;99748.03;5055138;28;20033;-79
2023/12/14 03:06:47;;;;;;;19.98;14.75;;;;;;;12.93;94.06;99767.97;5052682;28;20033;-76
2023/12/14 03:09:12;;;;;;;23.33;13.55;;;;;;;13.00;93.60;99762.75;5048410;28;20080;-76
2023/12/14 03:11:38;;;;;;;19.38;13.75;;;;;;;13.01;93.27;99754.50;5047171;28;20056;-75
2023/12/14 03:14:03;;;;;;;22.45;14.57;;;;;;;13.18;92.36;99765.41;5050399;28;20031;-76
2023/12/14 03:16:29;;;;;;;22.17;12.57;;;;;;;13.26;92.26;99777.09;5050384;28;20033;-76
2023/12/14 03:18:56;;;;;;;18.63;13.98;;;;;;;13.15;91.75;99741.44;5050417;28;20052;-76
2023/12/14 03:21:22;;;;;;;23.17;14.30;;;;;;;13.34;91.29;99771.72;5050523;28;20021;-76
2023/12/14 03:23:48;;;;;;;18.70;14.20;;;;;;;13.42;90.91;99768.22;5050493;28;20032;-75
2023/12/14 03:26:13;;;;;;;26.35;15.00;;;;;;;13.46;90.37;99764.16;5048891;28;20059;-76
2023/12/14 03:28:39;;;;;;;24.25;15.43;;;;;;;13.50;89.84;99765.53;5049963;28;20017;-76
2023/12/14 03:31:04;;;;;;;21.48;14.75;;;;;;;13.52;89.51;99756.25;5050543;28;20021;-78
2023/12/14 03:33:30;;;;;;;25.30;15.20;;;;;;;13.47;89.22;99745.09;5050003;28;20021;-76
2023/12/14 03:35:55;;;;;;;22.40;15.40;;;;;;;13.58;89.23;99746.63;5050249;28;20044;-75
2023/12/14 03:38:21;;;;;;;23.88;16.42;;;;;;;13.61;88.93;99746.28;5064163;28;20041;-75
2023/12/14 03:40:46;;;;;;;25.13;14.68;;;;;;;13.63;88.88;99745.13;5048667;28;20477;-77
2023/12/14 03:43:12;;;;;;;18.60;13.30;;;;;;;13.61;88.20;99739.03;5049919;28;20071;-76
2023/12/14 03:45:37;;;;;;;18.17;12.80;;;;;;;13.69;88.32;99749.03;5050221;28;20515;-76
2023/12/14 03:48:03;;;;;;;21.27;12.95;;;;;;;13.69;88.22;99750.88;5050798;28;20036;-74
2023/12/14 03:50:29;;;;;;;19.13;13.18;;;;;;;13.75;87.60;99752.91;5050193;28;20036;-76
2023/12/14 03:52:54;;;;;;;20.88;14.57;;;;;;;13.79;87.14;99763.22;5052602;28;20452;-79
2023/12/14 03:55:20;;;;;;;26.40;13.07;;;;;;;13.81;87.19;99766.63;5057222;28;20116;-79
2023/12/14 03:57:45;;;;;;;18.67;12.40;;;;;;;13.81;86.94;99758.50;5052013;28;20029;-76
2023/12/14 04:00:12;;;;;;;17.55;12.07;;;;;;;13.86;86.76;99766.09;5050231;28;20110;-76
2023/12/14 04:02:38;;;;;;;17.70;12.73;;;;;;;13.87;86.49;99768.66;5047324;28;20125;-75
2023/12/14 04:05:06;;;;;;;17.33;11.50;;;;;;;13.84;86.27;99763.59;5049648;28;20413;-76
2023/12/14 04:07:31;;;;;;;19.00;12.50;;;;;;;13.79;86.13;99747.00;5049429;28;20032;-76
2023/12/14 04:09:57;;;;;;;22.88;12.27;;;;;;;13.84;86.04;99763.59;5049414;28;20021;-76
2023/12/14 04:12:22;;;;;;;15.20;11.05;;;;;;;13.92;85.76;99777.09;5049369;28;20063;-76
2023/12/14 04:14:48;;;;;;;17.35;12.07;;;;;;;13.87;85.64;99768.66;5049295;28;20496;-75
2023/12/14 04:17:13;;;;;;;22.13;11.85;;;;;;;13.98;85.10;99789.94;5048831;28;20495;-75
2023/12/14 04:19:39;;;;;;;17.75;11.55;;;;;;;13.97;85.19;99785.56;5049226;28;20059;-76
2023/12/14 04:22:05;;;;;;;19.75;13.45;;;;;;;14.06;85.23;99795.38;5049019;28;20396;-75
2023/12/14 04:24:30;;;;;;;19.55;12.77;;;;;;;14.05;84.59;99787.41;5048339;28;20032;-76
2023/12/14 04:26:56;;;;;;;16.15;11.73;;;;;;;13.99;84.33;99770.03;5048906;28;20052;-75
2023/12/14 04:29:21;;;;;;;25.00;13.55;;;;;;;14.09;84.30;99783.38;5049040;28;20503;-76
2023/12/14 04:31:48;;;;;;;15.57;12.60;;;;;;;14.12;83.95;99789.31;5049169;28;20029;-76
2023/12/14 04:34:15;;;;;;;18.90;12.30;;;;;;;14.10;83.73;99774.22;5048879;28;20037;-76
2023/12/14 04:36:42;;;;;;;18.63;12.50;;;;;;;13.99;83.07;99745.69;5049679;28;20029;-75
2023/12/14 04:39:07;;;;;;;18.35;11.90;;;;;;;14.05;82.77;99754.97;5049654;28;20021;-74
2023/12/14 04:41:33;;;;;;;18.63;12.25;;;;;;;14.18;82.82;99777.81;5047465;28;20048;-76
2023/12/14 04:43:58;;;;;;;18.77;13.90;;;;;;;14.15;82.77;99770.03;5050713;28;20111;-75
2023/12/14 04:46:24;;;;;;;19.42;12.50;;;;;;;14.03;82.34;99743.50;5050538;28;20559;-75
2023/12/14 04:48:49;;;;;;;19.90;12.95;;;;;;;14.08;82.58;99750.09;5048368;28;20024;-77
2023/12/14 04:51:15;;;;;;;23.90;14.82;;;;;;;14.20;82.36;99780.34;5048519;28;20064;-78
2023/12/14 04:53:40;;;;;;;22.80;13.95;;;;;;;14.11;82.27;99759.72;5048166;28;20037;-76
2023/12/14 04:56:11;;;;;;;19.63;13.50;;;;;;;14.18;81.86;99767.00;5047599;28;20512;-76
2023/12/14 04:58:36;;;;;;;19.33;13.25;;;;;;;14.09;82.08;99743.66;5048051;28;20048;-76
2023/12/14 05:01:02;;;;;;;22.13;12.63;;;;;;;14.22;81.55;99764.78;5048710;28;20516;-75
2023/12/14 05:03:27;;;;;;;19.95;12.70;;;;;;;14.19;81.27;99757.00;5048979;28;20093;-77
2023/12/14 05:05:53;;;;;;;18.25;11.85;;;;;;;14.22;81.05;99767.47;5048722;28;20036;-77
2023/12/14 05:08:19;;;;;;;20.02;12.90;;;;;;;14.19;81.30;99759.69;5048824;28;20097;-79
2023/12/14 05:10:44;;;;;;;20.75;11.63;;;;;;;14.22;81.18;99764.78;5048823;28;20037;-78
2023/12/14 05:13:10;;;;;;;23.10;11.88;;;;;;;14.23;81.34;99757.50;5048092;28;20061;-78
2023/12/14 05:15:35;;;;;;;16.73;10.90;;;;;;;14.16;81.12;99752.78;5048399;28;20039;-78
2023/12/14 05:18:00;;;;;;;22.20;15.00;;;;;;;14.23;81.30;99762.91;5048311;28;20142;-75
2023/12/14 05:20:26;;;;;;;23.73;15.57;;;;;;;14.24;80.92;99762.75;5048497;28;20037;-78
2023/12/14 05:22:51;;;;;;;21.00;13.02;;;;;;;14.21;80.85;99755.00;5048416;28;20033;-77
2023/12/14 05:25:17;;;;;;;16.33;11.52;;;;;;;14.20;80.72;99742.47;5048736;28;20143;-78
2023/12/14 05:27:43;;;;;;;19.13;11.98;;;;;;;14.23;80.62;99757.50;5048421;28;20025;-77
2023/12/14 05:30:08;;;;;;;22.17;12.25;;;;;;;14.23;80.59;99752.94;5048278;28;20032;-77
2023/12/14 05:32:34;;;;;;;17.42;11.82;;;;;;;14.19;80.48;99738.91;5063267;28;20063;-78
2023/12/14 05:35:00;;;;;;;16.90;11.55;;;;;;;14.25;80.28;99745.50;5052982;28;20079;-79
2023/12/14 05:37:25;;;;;;;19.00;11.65;;;;;;;14.16;80.21;99736.56;5048707;28;20055;-76
2023/12/14 05:39:51;;;;;;;19.17;11.25;;;;;;;14.23;79.92;99735.88;5047576;28;20133;-77
2023/12/14 05:42:17;;;;;;;21.45;11.88;;;;;;;14.16;80.23;99724.88;5047407;28;20024;-73
2023/12/14 05:44:44;;;;;;;17.73;11.13;;;;;;;14.29;80.24;99746.00;5045574;28;20037;-77
2023/12/14 05:47:11;;;;;;;25.20;13.48;;;;;;;14.27;79.94;99748.91;5047922;28;20033;-76
2023/12/14 05:49:37;;;;;;;13.10;9.02;;;;;;;14.30;79.77;99753.13;5047636;28;20075;-78
2023/12/14 05:52:03;;;;;;;15.00;10.07;;;;;;;14.15;79.95;99729.47;5047513;28;20449;-79
2023/12/14 05:54:28;;;;;;;18.63;10.48;;;;;;;14.37;79.64;99751.47;5047827;28;20112;-80
2023/12/14 05:56:54;;;;;;;15.90;9.80;;;;;;;14.39;79.44;99757.53;5047466;28;20086;-78
2023/12/14 05:59:19;;;;;;;12.75;9.30;;;;;;;14.43;79.55;99758.91;5047516;28;20029;-78
2023/12/14 06:01:45;;;;;;;18.33;11.15;;;;;;;14.44;79.10;99760.56;5047317;28;20032;-77
2023/12/14 06:04:10;;;;;;;15.77;10.80;;;;;;;14.37;78.97;99746.06;5047493;28;20441;-79
2023/12/14 06:06:39;;;;;;;20.23;10.90;;;;;;;14.43;79.06;99743.50;5046722;28;20068;-78
2023/12/14 06:09:07;;;;;;;13.85;9.27;;;;;;;14.44;78.69;99755.16;5047301;28;20025;-80
2023/12/14 06:11:36;;;;;;;19.73;11.73;;;;;;;14.51;78.69;99767.00;5047310;28;20017;-77
2023/12/14 06:14:01;;;;;;;14.77;11.18;;;;;;;14.56;78.93;99759.19;5047580;28;20067;-76
2023/12/14 06:16:27;;;;;;;24.25;14.65;;;;;;;14.49;78.74;99747.41;5049330;28;20433;-82
2023/12/14 06:18:53;;;;;;;18.55;9.38;;;;;;;14.58;78.55;99763.47;5048633;28;20103;-77
2023/12/14 06:21:18;;;;;;;15.70;10.43;;;;;;;14.67;78.46;99767.84;5048515;28;20107;-76
2023/12/14 06:23:43;;;;;;;20.63;12.07;;;;;;;14.71;78.44;99773.72;5049105;28;20033;-76
2023/12/14 06:26:09;;;;;;;22.48;12.80;;;;;;;14.79;78.29;99787.25;5048878;28;20052;-76
2023/12/14 06:28:34;;;;;;;16.83;9.60;;;;;;;14.82;77.91;99781.50;5047226;28;20033;-79
2023/12/14 06:31:01;;;;;;;15.45;11.10;;;;;;;14.93;77.76;99797.38;5046945;28;20106;-76
2023/12/14 06:33:26;;;;;;;18.40;12.55;;;;;;;14.97;77.82;99793.31;5046590;28;20082;-78
2023/12/14 06:35:52;;;;;;;24.50;13.02;;;;;;;14.96;77.60;99788.91;5046679;28;20033;-78
2023/12/14 06:38:17;;;;;;;25.73;15.05;;;;;;;14.99;77.78;99777.72;5047094;28;20507;-77
2023/12/14 06:40:43;;;;;;;22.20;14.50;;;;;;;14.93;77.29;99762.19;5044134;28;20025;-78
2023/12/14 06:43:09;;;;;;;100.03;18.23;;;;;;;15.11;76.80;99780.91;5045968;28;20026;-78
2023/12/14 06:45:37;;;;;;;68.32;17.38;;;;;;;15.11;76.06;99765.50;5046677;28;20063;-79
2023/12/14 06:48:03;;;;;;;55.20;15.00;;;;;;;15.04;76.04;99759.13;5049887;28;20468;-78
2023/12/14 06:50:28;;;;;;;89.07;17.50;;;;;;;15.21;75.96;99771.56;5050569;28;20124;-78
2023/12/14 06:52:54;;;;;;;52.55;12.80;;;;;;;15.16;75.89;99757.72;5050421;28;20137;-76
2023/12/14 06:55:19;;;;;;;44.22;12.27;;;;;;;15.19;75.50;99757.34;5050523;28;20444;-77
2023/12/14 06:57:46;;;;;;;57.30;12.35;;;;;;;15.25;75.39;99767.50;5051159;28;20074;-81
2023/12/14 07:00:13;;;;;;;35.38;13.45;;;;;;;15.35;74.90;99772.69;5049509;28;20058;-77
2023/12/14 07:02:39;;;;;;;37.00;14.50;;;;;;;15.27;74.63;99754.59;5051552;28;20033;-77
2023/12/14 07:05:04;;;;;;;29.50;15.57;;;;;;;15.46;74.88;99785.00;5051628;28;20044;-80
2023/12/14 07:07:30;;;;;;;48.17;19.48;;;;;;;15.51;74.88;99779.91;5052841;28;20501;-77
2023/12/14 07:09:55;;;;;;;17.67;10.93;;;;;;;15.52;74.77;99785.19;5050819;28;20563;-80
2023/12/14 07:12:21;;;;;;;20.52;11.63;;;;;;;15.44;74.73;99765.38;5063082;28;20103;-82
2023/12/14 07:14:46;;;;;;;87.55;20.05;;;;;;;15.58;74.38;99779.06;5067063;28;20536;-80
2023/12/14 07:17:12;;;;;;;39.05;13.68;;;;;;;15.63;74.04;99781.22;5052340;28;20021;-78
2023/12/14 07:19:38;;;;;;;52.47;14.32;;;;;;;15.67;74.10;99785.25;5050410;28;20029;-79
2023/12/14 07:22:03;;;;;;;58.63;15.48;;;;;;;15.57;73.59;99757.53;5051151;28;20116;-83
2023/12/14 07:24:29;;;;;;;76.72;17.02;;;;;;;15.50;73.45;99749.28;5049090;28;20029;-77
2023/12/14 07:26:54;;;;;;;26.30;11.27;;;;;;;15.78;73.27;99795.69;5049193;28;20049;-78
2023/12/14 07:29:20;;;;;;;23.80;11.80;;;;;;;15.67;73.22;99777.13;5050458;28;20024;-79
2023/12/14 07:31:45;;;;;;;21.55;11.85;;;;;;;15.72;72.93;99774.72;5050697;28;20049;-80
2023/12/14 07:34:11;;;;;;;18.50;12.05;;;;;;;15.87;72.73;99794.63;5050242;28;20032;-79
2023/12/14 07:36:37;;;;;;;23.23;11.20;;;;;;;15.84;72.49;99773.28;5050891;28;20408;-81
2023/12/14 07:39:03;;;;;;;19.90;10.88;;;;;;;15.97;72.49;99803.38;5050632;28;20025;-79
2023/12/14 07:41:30;;;;;;;17.23;11.48;;;;;;;15.94;72.29;99779.34;5049851;28;20056;-78
2023/12/14 07:43:56;;;;;;;20.20;10.75;;;;;;;16.03;71.96;99780.97;5049895;28;20040;-79
2023/12/14 07:46:22;;;;;;;18.10;10.52;;;;;;;16.16;71.48;99799.34;5050393;28;20124;-77
2023/12/14 07:48:47;;;;;;;33.25;12.38;;;;;;;16.14;71.40;99796.84;5049967;28;20100;-78
2023/12/14 07:51:13;;;;;;;53.47;16.08;;;;;;;16.13;71.45;99784.28;5050049;28;20041;-77
2023/12/14 07:53:39;;;;;;;24.55;11.27;;;;;;;16.17;71.44;99774.78;5050433;28;20032;-78
2023/12/14 07:56:05;;;;;;;28.77;11.02;;;;;;;16.21;71.01;99784.22;5050611;28;20125;-78
2023/12/14 07:58:30;;;;;;;36.78;13.02;;;;;;;15.97;71.03;99735.56;5049173;28;20096;-77
2023/12/14 08:00:56;;;;;;;36.45;11.48;;;;;;;16.36;71.11;99791.59;5051229;28;20167;-77
2023/12/14 08:03:22;;;;;;;19.15;11.32;;;;;;;16.49;70.43;99805.38;5057411;28;20025;-81
2023/12/14 08:05:47;;;;;;;35.45;17.35;;;;;;;16.55;70.06;99804.66;5054366;28;20033;-78
2023/12/14 08:08:13;;;;;;;46.85;20.52;;;;;;;16.53;69.81;99802.13;5049934;28;20670;-79
2023/12/14 08:10:38;;;;;;;30.50;15.98;;;;;;;16.68;69.76;99823.91;5049925;28;20040;-80
2023/12/14 08:13:04;;;;;;;19.92;11.50;;;;;;;16.71;69.47;99805.38;5049083;28;20056;-78
2023/12/14 08:15:30;;;;;;;32.67;16.95;;;;;;;16.73;69.40;99792.44;5049116;28;20095;-78
2023/12/14 08:17:55;;;;;;;33.80;13.75;;;;;;;16.87;69.12;99804.38;5046534;28;20060;-81
2023/12/14 08:20:21;;;;;;;16.98;11.13;;;;;;;16.80;68.85;99793.41;5049454;28;20140;-76
2023/12/14 08:22:47;;;;;;;25.02;10.98;;;;;;;16.85;68.44;99790.97;5049918;28;20036;-79
2023/12/14 08:25:14;;;;;;;17.52;11.27;;;;;;;17.02;68.30;99802.50;5049449;28;20049;-78
2023/12/14 08:27:40;;;;;;;24.50;13.43;;;;;;;17.10;68.20;99805.13;5049296;28;20061;-79
2023/12/14 08:30:06;;;;;;;36.28;15.13;;;;;;;17.03;67.82;99766.16;5049450;28;20450;-76
2023/12/14 08:32:32;;;;;;;26.30;12.20;;;;;;;17.13;67.53;99783.03;5049047;28;20033;-74
2023/12/14 08:34:57;;;;;;;28.58;13.77;;;;;;;17.29;67.49;99795.59;5048398;28;20377;-75
2023/12/14 08:37:22;;;;;;;23.95;13.98;;;;;;;17.36;67.39;99794.66;5048371;28;20028;-76
2023/12/14 08:39:48;;;;;;;18.75;11.35;;;;;;;17.27;67.27;99773.19;5048842;28;20071;-74
2023/12/14 08:42:13;;;;;;;19.25;11.38;;;;;;;17.32;66.71;99765.31;5049027;28;20032;-78
2023/12/14 08:44:40;;;;;;;20.67;10.02;;;;;;;17.44;66.80;99785.53;5049070;28;20033;-75
2023/12/14 08:47:05;;;;;;;24.65;11.32;;;;;;;17.50;66.65;99786.66;5048785;28;20093;-75
2023/12/14 08:49:31;;;;;;;15.63;9.48;;;;;;;17.56;66.60;99785.91;5048531;28;20032;-76
2023/12/14 08:51:56;;;;;;;17.98;9.57;;;;;;;17.63;66.51;99789.56;5050223;28;20056;-76
2023/12/14 08:54:22;;;;;;;16.00;9.00;;;;;;;17.67;66.14;99785.47;5049623;28;20490;-74
2023/12/14 08:56:47;;;;;;;24.92;10.57;;;;;;;17.71;65.67;99782.16;5047954;28;20040;-74
2023/12/14 08:59:13;;;;;;;18.70;10.15;;;;;;;17.78;65.69;99782.22;5048301;28;20021;-75
2023/12/14 09:01:39;;;;;;;20.80;10.73;;;;;;;17.79;65.55;99783.91;5046605;28;20036;-75
2023/12/14 09:04:04;;;;;;;18.15;10.27;;;;;;;17.90;65.17;99795.16;5048218;28;20029;-79
2023/12/14 09:06:30;;;;;;;29.23;11.55;;;;;;;17.75;65.10;99756.25;5048020;28;20025;-74
2023/12/14 09:08:56;;;;;;;21.63;10.82;;;;;;;17.97;65.26;99780.75;5048230;28;20029;-80
2023/12/14 09:11:21;;;;;;;48.70;13.02;;;;;;;17.99;64.93;99768.66;5047845;28;20059;-77
2023/12/14 09:13:47;;;;;;;225.73;25.33;;;;;;;18.01;64.61;99765.75;5047776;28;20044;-79
2023/12/14 09:16:12;;;;;;;190.55;21.52;;;;;;;18.07;64.70;99768.50;5047675;28;20029;-79
2023/12/14 09:18:38;;;;;;;134.60;20.23;;;;;;;18.09;64.81;99766.47;5047502;28;20051;-78
2023/12/14 09:21:04;;;;;;;30.00;11.20;;;;;;;18.12;64.78;99760.63;5045699;28;20094;-77
2023/12/14 09:23:30;;;;;;;32.95;11.00;;;;;;;18.15;64.70;99759.41;5047907;28;20124;-82
2023/12/14 09:25:59;;;;;;;38.60;14.05;;;;;;;18.17;64.56;99751.88;5048296;28;20132;-78
2023/12/14 09:28:25;;;;;;;32.63;11.68;;;;;;;18.19;64.52;99745.22;5048113;28;20105;-77
2023/12/14 09:30:51;;;;;;;27.98;11.23;;;;;;;18.30;64.27;99754.72;5048469;28;20396;-78
2023/12/14 09:33:16;;;;;;;26.38;11.40;;;;;;;18.38;63.96;99749.97;5048711;28;20029;-75
2023/12/14 09:35:45;;;;;;;23.83;10.57;;;;;;;18.38;63.95;99744.53;5049717;28;20060;-77
2023/12/14 09:38:13;;;;;;;38.33;13.20;;;;;;;18.38;63.65;99741.81;5048604;28;20029;-75
2023/12/14 09:40:39;;;;;;;47.33;10.70;;;;;;;18.42;63.47;99740.38;5051062;28;20035;-77
2023/12/14 09:43:05;;;;;;;30.25;10.57;;;;;;;18.44;63.32;99737.44;5053303;28;20412;-77
2023/12/14 09:45:31;;;;;;;69.95;13.88;;;;;;;18.51;63.40;99741.09;5047014;28;20102;-78
2023/12/14 09:47:59;;;;;;;48.50;12.60;;;;;;;18.60;63.05;99752.69;5048346;28;20029;-77
2023/12/14 09:50:25;;;;;;;31.88;11.52;;;;;;;18.47;62.76;99727.00;5047740;28;20025;-77
2023/12/14 09:52:51;;;;;;;24.70;10.73;;;;;;;18.43;62.49;99719.44;5047961;28;20087;-78
2023/12/14 09:55:17;;;;;;;47.80;11.30;;;;;;;18.59;62.22;99734.69;5047643;28;20033;-77
2023/12/14 09:57:42;;;;;;;24.35;10.95;;;;;;;18.51;62.26;99729.38;5047321;28;20029;-77
2023/12/14 10:00:13;;;;;;;26.35;10.85;;;;;;;18.33;62.51;99714.34;5047796;28;20129;-77
2023/12/14 10:02:40;;;;;;;25.08;10.27;;;;;;;18.37;62.71;99726.53;5047577;28;20035;-78
2023/12/14 10:05:10;;;;;;;20.13;8.20;;;;;;;18.23;62.74;99707.53;5047509;28;20040;-77
2023/12/14 10:07:42;;;;;;;20.88;9.70;;;;;;;18.28;62.97;99719.53;5047025;28;20021;-77
2023/12/14 10:10:13;;;;;;;31.95;9.65;;;;;;;18.26;62.92;99705.28;5047710;28;20036;-77
2023/12/14 10:12:54;;;;;;;24.55;9.48;;;;;;;18.40;62.72;99722.56;5047534;28;20056;-78
2023/12/14 10:15:23;;;;;;;23.15;10.00;;;;;;;18.43;62.74;99720.31;5047121;28;20032;-77
2023/12/14 10:17:54;;;;;;;20.45;8.82;;;;;;;18.45;62.33;99717.34;5047064;28;20024;-76
2023/12/14 10:20:23;;;;;;;19.00;8.70;;;;;;;18.47;62.68;99718.84;5045127;28;20120;-77
2023/12/14 10:22:53;;;;;;;26.17;7.68;;;;;;;18.47;62.69;99705.22;5050680;28;20112;-76
2023/12/14 10:25:19;;;;;;;26.30;10.20;;;;;;;18.59;62.65;99711.00;5051710;28;20556;-77
2023/12/14 10:27:48;;;;;;;48.00;12.40;;;;;;;18.55;62.24;99714.34;5051871;28;20086;-78
2023/12/14 10:30:15;;;;;;;32.50;12.32;;;;;;;18.59;61.97;99711.00;5054631;28;20083;-78
2023/12/14 10:32:41;;;;;;;49.38;14.90;;;;;;;18.67;61.92;99726.34;5053809;28;20068;-77
2023/12/14 10:35:07;;;;;;;21.30;9.52;;;;;;;18.66;61.41;99716.50;5051273;28;20097;-77
2023/12/14 10:37:37;;;;;;;40.50;12.38;;;;;;;18.59;61.22;99696.56;5050885;28;20512;-78
2023/12/14 10:40:25;;;;;;;25.00;10.13;;;;;;;18.74;61.14;99708.19;5050050;28;20183;-78
2023/12/14 10:42:51;;;;;;;30.45;10.68;;;;;;;18.80;60.76;99721.00;5047961;28;20080;-76
2023/12/14 10:45:19;;;;;;;29.23;8.98;;;;;;;18.91;60.28;99710.38;5048499;28;20078;-77
2023/12/14 10:47:47;;;;;;;27.25;8.10;;;;;;;18.59;59.90;99639.38;5048062;28;20059;-79
2023/12/14 10:50:13;;;;;;;34.80;11.50;;;;;;;18.93;59.57;99691.09;5048482;28;20028;-79
2023/12/14 10:52:40;;;;;;;25.50;9.45;;;;;;;19.01;59.46;99699.13;5048283;28;20548;-77
2023/12/14 10:55:36;;;;;;;32.25;10.77;;;;;;;19.12;59.33;99706.72;5048281;28;20086;-78
2023/12/14 10:58:03;;;;;;;32.63;8.73;;;;;;;19.14;58.60;99706.53;5048149;28;20036;-78
2023/12/14 11:00:30;;;;;;;29.75;10.15;;;;;;;19.13;58.57;99708.41;5048127;28;20538;-77
2023/12/14 11:02:57;;;;;;;29.35;9.40;;;;;;;19.16;58.12;99707.16;5048088;28;20461;-78
2023/12/14 11:05:29;;;;;;;37.40;9.77;;;;;;;19.17;57.82;99709.69;5048166;28;20490;-82
2023/12/14 11:08:00;;;;;;;34.35;10.52;;;;;;;19.01;57.60;99680.06;5048244;28;20085;-77
2023/12/14 11:10:37;;;;;;;46.45;12.15;;;;;;;19.09;58.12;99700.81;5048259;28;20485;-77
2023/12/14 11:13:11;;;;;;;80.05;13.13;;;;;;;19.17;58.19;99725.22;5048299;28;20056;-76